createdAt,value
2022-12-09T00:00:33.100Z,75.88
2022-12-09T00:05:54.967Z,76.70
2022-12-09T00:11:17.651Z,75.96
2022-12-09T00:16:39.945Z,76.43
2022-12-09T00:22:01.958Z,76.70
2022-12-09T00:27:23.735Z,76.34
2022-12-09T00:32:45.546Z,77.42
2022-12-09T00:38:07.291Z,78.52
2022-12-09T00:43:29.317Z,78.13
2022-12-09T00:48:51.159Z,78.20
2022-12-09T00:54:13.047Z,78.02
2022-12-09T00:59:35.062Z,77.36
2022-12-09T01:04:57.104Z,76.87
2022-12-09T01:10:19.249Z,76.14
2022-12-09T01:15:41.546Z,77.06
2022-12-09T01:21:03.474Z,77.07
2022-12-09T01:26:25.374Z,76.79
2022-12-09T01:31:47.695Z,75.75
2022-12-09T01:37:09.793Z,75.21
2022-12-09T01:42:33.078Z,74.45
2022-12-09T01:48:01.339Z,75.44
2022-12-09T01:53:31.115Z,76.28
2022-12-09T01:58:54.452Z,77.10
2022-12-09T02:04:16.260Z,77.31
2022-12-09T02:09:39.539Z,77.33
2022-12-09T02:15:05.421Z,78.37
2022-12-09T02:20:33.491Z,79.08
2022-12-09T02:26:05.567Z,77.89
2022-12-09T02:31:27.354Z,77.66
2022-12-09T02:37:08.001Z,78.71
2022-12-09T02:42:34.613Z,78.99
2022-12-09T02:48:01.190Z,78.14
2022-12-09T02:53:25.847Z,78.89
2022-12-09T02:58:49.091Z,78.85
2022-12-09T03:04:16.954Z,78.05
2022-12-09T03:09:43.271Z,78.47
2022-12-09T03:15:07.422Z,77.89
2022-12-09T03:20:30.565Z,78.82
2022-12-09T03:25:54.378Z,78.57
2022-12-09T03:31:21.792Z,78.51
2022-12-09T03:36:46.516Z,79.31
2022-12-09T03:42:28.378Z,78.56
2022-12-09T03:47:51.594Z,77.79
2022-12-09T03:53:19.112Z,77.40
2022-12-09T03:58:43.475Z,78.21
2022-12-09T04:04:05.345Z,78.25
2022-12-09T04:09:27.371Z,77.84
2022-12-09T04:14:49.721Z,78.67
2022-12-09T04:20:12.274Z,78.64
2022-12-09T04:25:34.770Z,79.68
2022-12-09T04:30:57.382Z,80.16
2022-12-09T04:36:20.618Z,80.70
2022-12-09T04:41:42.591Z,80.38
2022-12-09T04:47:04.732Z,81.34
2022-12-09T04:52:26.995Z,82.28
2022-12-09T04:57:48.739Z,82.33
2022-12-09T05:03:10.708Z,81.89
2022-12-09T05:08:33.380Z,82.91
2022-12-09T05:13:56.033Z,81.85
2022-12-09T05:19:18.084Z,81.87
2022-12-09T05:24:41.097Z,82.22
2022-12-09T05:30:03.398Z,81.49
2022-12-09T05:35:25.588Z,81.72
2022-12-09T05:40:47.864Z,82.13
2022-12-09T05:46:10.429Z,82.18
2022-12-09T05:51:35.134Z,82.75
2022-12-09T05:56:58.072Z,83.03
2022-12-09T06:02:20.337Z,82.58
2022-12-09T06:07:42.914Z,81.48
2022-12-09T06:13:04.909Z,81.65
2022-12-09T06:18:26.844Z,82.24
2022-12-09T06:23:50.166Z,81.79
2022-12-09T06:29:12.918Z,82.06
2022-12-09T06:34:34.988Z,81.20
2022-12-09T06:39:57.145Z,81.97
2022-12-09T06:45:20.076Z,80.57
2022-12-09T06:50:42.164Z,81.40
2022-12-09T06:56:12.191Z,81.27
2022-12-09T07:01:36.058Z,81.76
2022-12-09T07:06:58.268Z,81.23
2022-12-09T07:12:20.189Z,79.56
2022-12-09T07:17:42.173Z,79.56
2022-12-09T07:23:04.168Z,79.21
2022-12-09T07:28:25.937Z,78.87
2022-12-09T07:33:48.334Z,78.62
2022-12-09T07:39:14.892Z,77.91
2022-12-09T07:44:37.173Z,76.07
2022-12-09T07:50:02.935Z,76.91
2022-12-09T07:55:28.231Z,75.36
2022-12-09T08:00:50.222Z,76.40
2022-12-09T08:06:14.959Z,75.11
2022-12-09T08:11:37.501Z,74.99
2022-12-09T08:16:59.601Z,75.29
2022-12-09T08:22:23.149Z,75.38
2022-12-09T08:27:45.654Z,75.43
2022-12-09T08:33:07.547Z,74.32
2022-12-09T08:38:31.957Z,75.08
2022-12-09T08:43:53.787Z,74.65
2022-12-09T08:49:18.893Z,74.37
2022-12-09T08:54:41.294Z,74.48
2022-12-09T09:00:04.106Z,74.71
2022-12-09T09:05:26.222Z,75.42
2022-12-09T09:10:48.420Z,74.50
2022-12-09T09:16:16.761Z,73.16
2022-12-09T09:21:38.720Z,73.41
2022-12-09T09:27:01.019Z,72.31
2022-12-09T09:32:23.178Z,72.76
2022-12-09T09:37:45.278Z,72.34
2022-12-09T09:43:18.149Z,72.49
2022-12-09T09:48:40.076Z,73.33
2022-12-09T09:54:08.103Z,72.98
2022-12-09T09:59:36.707Z,74.44
2022-12-09T10:05:03.709Z,73.78
2022-12-09T10:10:58.592Z,73.85
2022-12-09T10:16:32.684Z,73.04
2022-12-09T10:21:56.389Z,73.65
2022-12-09T10:27:29.847Z,73.53
2022-12-09T10:32:53.548Z,72.98
2022-12-09T10:38:18.971Z,73.99
2022-12-09T10:43:43.231Z,73.56
2022-12-09T10:49:05.104Z,73.69
2022-12-09T10:54:35.785Z,74.72
2022-12-09T11:00:21.692Z,74.57
2022-12-09T11:05:44.037Z,74.28
2022-12-09T11:11:06.195Z,73.74
2022-12-09T11:16:28.259Z,73.70
2022-12-09T11:21:50.828Z,73.64
2022-12-09T11:27:34.706Z,73.25
2022-12-09T11:33:27.720Z,73.51
2022-12-09T11:38:52.579Z,73.29
2022-12-09T11:44:26.178Z,71.32
2022-12-09T11:49:54.564Z,71.12
2022-12-09T11:55:22.472Z,72.16
2022-12-09T12:01:00.378Z,72.01
2022-12-09T12:06:48.237Z,72.32
2022-12-09T12:12:18.701Z,72.85
2022-12-09T12:17:49.731Z,73.58
2022-12-09T12:23:36.714Z,73.44
2022-12-09T12:29:25.219Z,73.51
2022-12-09T12:35:02.743Z,72.64
2022-12-09T12:40:43.491Z,72.80
2022-12-09T12:46:29.907Z,73.39
2022-12-09T12:52:53.816Z,73.61
2022-12-09T12:58:12.872Z,74.52
2022-12-09T13:03:44.960Z,74.62
2022-12-09T13:09:14.017Z,74.73
2022-12-09T13:14:50.228Z,75.76
2022-12-09T13:20:29.895Z,75.18
2022-12-09T13:26:03.060Z,76.23
2022-12-09T13:31:29.685Z,77.17
2022-12-09T13:36:51.541Z,77.32
2022-12-09T13:42:46.382Z,77.30
2022-12-09T13:48:16.605Z,77.79
2022-12-09T13:53:47.681Z,78.43
2022-12-09T13:59:39.744Z,78.96
2022-12-09T14:05:16.208Z,79.94
2022-12-09T14:10:40.254Z,81.69
2022-12-09T14:16:16.100Z,83.94
2022-12-09T14:21:37.902Z,85.41
2022-12-09T14:26:59.640Z,86.18
2022-12-09T14:32:29.030Z,87.24
2022-12-09T14:38:22.699Z,88.31
2022-12-09T14:44:02.383Z,88.37
2022-12-09T14:49:28.469Z,89.36
2022-12-09T14:54:52.506Z,90.13
2022-12-09T15:00:27.802Z,90.74
2022-12-09T15:06:01.920Z,89.83
2022-12-09T15:11:28.976Z,90.32
2022-12-09T15:16:51.459Z,90.30
2022-12-09T15:22:22.069Z,91.30
2022-12-09T15:27:57.949Z,91.80
2022-12-09T15:33:20.022Z,90.98
2022-12-09T15:39:01.250Z,90.60
2022-12-09T15:44:24.987Z,90.14
2022-12-09T15:49:55.040Z,89.74
2022-12-09T15:55:21.503Z,89.97
2022-12-09T16:00:48.750Z,90.86
2022-12-09T16:06:10.508Z,90.23
2022-12-09T16:11:39.687Z,90.42
2022-12-09T16:17:03.236Z,90.52
2022-12-09T16:22:31.618Z,91.40
2022-12-09T16:28:00.152Z,90.02
2022-12-09T16:33:24.247Z,90.57
2022-12-09T16:39:12.588Z,90.65
2022-12-09T16:44:36.380Z,90.05
2022-12-09T16:49:58.081Z,90.92
2022-12-09T16:55:25.525Z,90.70
2022-12-09T17:00:48.494Z,91.89
2022-12-09T17:06:14.187Z,92.30
2022-12-09T17:11:35.912Z,92.22
2022-12-09T17:16:57.804Z,90.60
2022-12-09T17:22:19.614Z,91.40
2022-12-09T17:27:41.385Z,92.09
2022-12-09T17:33:03.183Z,91.45
2022-12-09T17:38:24.989Z,90.06
2022-12-09T17:43:46.918Z,90.48
2022-12-09T17:49:08.650Z,89.93
2022-12-09T17:54:30.480Z,89.80
2022-12-09T17:59:52.211Z,90.48
2022-12-09T18:05:13.981Z,90.83
2022-12-09T18:10:35.792Z,90.97
2022-12-09T18:15:57.735Z,90.07
2022-12-09T18:21:20.342Z,90.61
2022-12-09T18:26:42.582Z,89.81
2022-12-09T18:32:04.617Z,90.83
2022-12-09T18:37:26.612Z,91.42
2022-12-09T18:42:48.751Z,90.71
2022-12-09T18:48:10.456Z,90.86
2022-12-09T18:53:32.182Z,89.87
2022-12-09T18:59:06.442Z,89.67
2022-12-09T19:04:29.983Z,88.11
2022-12-09T19:09:51.763Z,88.33
2022-12-09T19:15:14.257Z,88.17
2022-12-09T19:20:36.053Z,87.86
2022-12-09T19:25:57.746Z,87.61
2022-12-09T19:31:22.606Z,87.78
2022-12-09T19:36:45.806Z,88.67
2022-12-09T19:42:08.301Z,88.65
2022-12-09T19:47:30.079Z,88.12
2022-12-09T19:52:51.860Z,88.04
2022-12-09T19:58:13.894Z,88.40
2022-12-09T20:03:37.070Z,87.73
2022-12-09T20:09:02.569Z,87.78
2022-12-09T20:14:24.345Z,87.95
2022-12-09T20:19:46.933Z,88.22
2022-12-09T20:25:09.145Z,87.44
2022-12-09T20:30:31.607Z,86.58
2022-12-09T20:35:53.425Z,87.85
2022-12-09T20:41:15.448Z,87.72
2022-12-09T20:46:39.925Z,87.16
2022-12-09T20:52:01.680Z,86.79
2022-12-09T20:57:23.477Z,87.23
2022-12-09T21:02:45.251Z,87.22
2022-12-09T21:08:07.525Z,87.60
2022-12-09T21:13:29.235Z,87.40
2022-12-09T21:18:56.696Z,87.69
2022-12-09T21:24:19.201Z,86.64
2022-12-09T21:29:41.025Z,86.37
2022-12-09T21:35:02.887Z,86.69
2022-12-09T21:40:24.656Z,85.95
2022-12-09T21:45:46.481Z,86.21
2022-12-09T21:51:10.572Z,86.46
2022-12-09T21:56:34.974Z,86.85
2022-12-09T22:01:56.781Z,86.78
2022-12-09T22:07:18.776Z,86.58
2022-12-09T22:12:40.525Z,85.72
2022-12-09T22:18:02.592Z,86.54
2022-12-09T22:23:24.296Z,85.86
2022-12-09T22:28:46.668Z,86.18
2022-12-09T22:34:12.686Z,85.50
2022-12-09T22:39:34.513Z,85.79
2022-12-09T22:44:56.302Z,85.60
2022-12-09T22:50:18.120Z,85.61
2022-12-09T22:55:46.092Z,84.74
2022-12-09T23:01:25.649Z,84.71
2022-12-09T23:06:47.809Z,84.89
2022-12-09T23:12:09.578Z,84.68
2022-12-09T23:17:31.315Z,84.69
2022-12-09T23:22:53.038Z,84.43
2022-12-09T23:28:14.750Z,85.34
2022-12-09T23:33:38.192Z,84.95
2022-12-09T23:39:01.396Z,85.21
2022-12-09T23:44:23.129Z,84.43
2022-12-09T23:49:44.860Z,84.68
2022-12-09T23:55:07.158Z,85.19
